sensor_id;sensor_type;location;lat;lon;timestamp;temperature;humidity
46159;DHT22;31888;44.512;26.104;2023-07-31T00:01:08;25.00;91.20
46159;DHT22;31888;44.512;26.104;2023-07-31T00:03:32;25.00;91.50
46159;DHT22;31888;44.512;26.104;2023-07-31T00:05:56;25.00;91.80
46159;DHT22;31888;44.512;26.104;2023-07-31T00:08:21;24.90;92.10
46159;DHT22;31888;44.512;26.104;2023-07-31T00:10:45;24.80;92.50
46159;DHT22;31888;44.512;26.104;2023-07-31T00:13:09;24.70;92.80
46159;DHT22;31888;44.512;26.104;2023-07-31T00:15:34;24.70;93.30
46159;DHT22;31888;44.512;26.104;2023-07-31T00:17:58;24.60;93.70
46159;DHT22;31888;44.512;26.104;2023-07-31T00:20:23;24.60;94.20
46159;DHT22;31888;44.512;26.104;2023-07-31T00:22:47;24.50;94.40
46159;DHT22;31888;44.512;26.104;2023-07-31T00:25:12;24.40;94.60
46159;DHT22;31888;44.512;26.104;2023-07-31T00:27:36;24.30;94.60
46159;DHT22;31888;44.512;26.104;2023-07-31T00:30:00;24.30;94.60
46159;DHT22;31888;44.512;26.104;2023-07-31T00:32:23;24.20;94.60
46159;DHT22;31888;44.512;26.104;2023-07-31T00:34:47;24.10;94.70
46159;DHT22;31888;44.512;26.104;2023-07-31T00:37:11;24.10;95.20
46159;DHT22;31888;44.512;26.104;2023-07-31T00:39:36;24.00;95.10
46159;DHT22;31888;44.512;26.104;2023-07-31T00:42:01;23.90;95.60
46159;DHT22;31888;44.512;26.104;2023-07-31T00:44:26;23.90;96.10
46159;DHT22;31888;44.512;26.104;2023-07-31T00:46:50;23.80;96.80
46159;DHT22;31888;44.512;26.104;2023-07-31T00:49:15;23.70;97.20
46159;DHT22;31888;44.512;26.104;2023-07-31T00:51:39;23.70;97.50
46159;DHT22;31888;44.512;26.104;2023-07-31T00:54:03;23.70;97.70
46159;DHT22;31888;44.512;26.104;2023-07-31T00:56:28;23.60;97.90
46159;DHT22;31888;44.512;26.104;2023-07-31T00:58:53;23.50;98.10
46159;DHT22;31888;44.512;26.104;2023-07-31T01:01:18;23.50;98.40
46159;DHT22;31888;44.512;26.104;2023-07-31T01:03:42;23.40;98.70
46159;DHT22;31888;44.512;26.104;2023-07-31T01:06:14;23.40;99.00
46159;DHT22;31888;44.512;26.104;2023-07-31T01:08:42;23.30;99.20
46159;DHT22;31888;44.512;26.104;2023-07-31T01:11:13;23.30;99.50
46159;DHT22;31888;44.512;26.104;2023-07-31T01:13:39;23.30;99.80
46159;DHT22;31888;44.512;26.104;2023-07-31T01:16:04;23.10;99.90
46159;DHT22;31888;44.512;26.104;2023-07-31T01:18:28;23.00;99.90
46159;DHT22;31888;44.512;26.104;2023-07-31T01:20:57;22.90;99.90
46159;DHT22;31888;44.512;26.104;2023-07-31T01:23:51;22.80;99.90
46159;DHT22;31888;44.512;26.104;2023-07-31T01:26:21;22.70;99.90
46159;DHT22;31888;44.512;26.104;2023-07-31T01:28:59;22.70;99.90
46159;DHT22;31888;44.512;26.104;2023-07-31T01:31:25;22.60;99.90
46159;DHT22;31888;44.512;26.104;2023-07-31T01:33:50;22.60;99.90
46159;DHT22;31888;44.512;26.104;2023-07-31T01:36:17;22.60;99.90
46159;DHT22;31888;44.512;26.104;2023-07-31T01:38:41;22.60;99.90
46159;DHT22;31888;44.512;26.104;2023-07-31T01:41:05;22.60;99.90
46159;DHT22;31888;44.512;26.104;2023-07-31T01:43:30;22.50;99.90
46159;DHT22;31888;44.512;26.104;2023-07-31T01:45:54;22.50;99.90
46159;DHT22;31888;44.512;26.104;2023-07-31T01:48:19;22.40;99.90
46159;DHT22;31888;44.512;26.104;2023-07-31T01:50:43;22.40;99.90
46159;DHT22;31888;44.512;26.104;2023-07-31T01:53:07;22.40;99.90
46159;DHT22;31888;44.512;26.104;2023-07-31T01:55:30;22.30;99.90
46159;DHT22;31888;44.512;26.104;2023-07-31T01:57:54;22.20;99.90
46159;DHT22;31888;44.512;26.104;2023-07-31T02:00:19;22.20;99.90
46159;DHT22;31888;44.512;26.104;2023-07-31T02:02:43;22.10;99.90
46159;DHT22;31888;44.512;26.104;2023-07-31T02:05:07;21.90;99.90
46159;DHT22;31888;44.512;26.104;2023-07-31T02:07:32;21.80;99.90
46159;DHT22;31888;44.512;26.104;2023-07-31T02:09:56;21.60;99.90
46159;DHT22;31888;44.512;26.104;2023-07-31T02:12:20;21.50;99.90
46159;DHT22;31888;44.512;26.104;2023-07-31T02:14:44;21.40;99.90
46159;DHT22;31888;44.512;26.104;2023-07-31T02:17:09;21.40;99.90
46159;DHT22;31888;44.512;26.104;2023-07-31T02:19:33;21.50;99.90
46159;DHT22;31888;44.512;26.104;2023-07-31T02:21:56;21.40;99.90
46159;DHT22;31888;44.512;26.104;2023-07-31T02:24:20;21.50;99.90
46159;DHT22;31888;44.512;26.104;2023-07-31T02:26:44;21.30;99.90
46159;DHT22;31888;44.512;26.104;2023-07-31T02:29:08;21.20;99.90
46159;DHT22;31888;44.512;26.104;2023-07-31T02:31:32;21.20;99.90
46159;DHT22;31888;44.512;26.104;2023-07-31T02:33:57;21.30;99.90
46159;DHT22;31888;44.512;26.104;2023-07-31T02:36:21;21.30;99.90
46159;DHT22;31888;44.512;26.104;2023-07-31T02:38:45;21.30;99.90
46159;DHT22;31888;44.512;26.104;2023-07-31T02:41:08;21.30;99.90
46159;DHT22;31888;44.512;26.104;2023-07-31T02:43:32;21.20;99.90
46159;DHT22;31888;44.512;26.104;2023-07-31T02:45:56;21.30;99.90
46159;DHT22;31888;44.512;26.104;2023-07-31T02:48:21;21.30;99.90
46159;DHT22;31888;44.512;26.104;2023-07-31T02:50:47;21.30;99.90
46159;DHT22;31888;44.512;26.104;2023-07-31T02:53:11;21.20;99.90
46159;DHT22;31888;44.512;26.104;2023-07-31T02:55:35;21.30;99.90
46159;DHT22;31888;44.512;26.104;2023-07-31T02:57:59;21.30;99.90
46159;DHT22;31888;44.512;26.104;2023-07-31T03:00:22;21.30;99.90
46159;DHT22;31888;44.512;26.104;2023-07-31T03:02:46;21.10;99.90
46159;DHT22;31888;44.512;26.104;2023-07-31T03:05:10;21.10;99.90
46159;DHT22;31888;44.512;26.104;2023-07-31T03:07:35;21.10;99.90
46159;DHT22;31888;44.512;26.104;2023-07-31T03:09:59;21.10;99.90
46159;DHT22;31888;44.512;26.104;2023-07-31T03:12:23;21.10;99.90
46159;DHT22;31888;44.512;26.104;2023-07-31T03:14:47;21.00;99.90
46159;DHT22;31888;44.512;26.104;2023-07-31T03:17:11;21.00;99.90
46159;DHT22;31888;44.512;26.104;2023-07-31T03:19:35;21.00;99.90
46159;DHT22;31888;44.512;26.104;2023-07-31T03:21:58;20.90;99.90
46159;DHT22;31888;44.512;26.104;2023-07-31T03:24:25;21.00;99.90
46159;DHT22;31888;44.512;26.104;2023-07-31T03:26:49;20.90;99.90
46159;DHT22;31888;44.512;26.104;2023-07-31T03:29:13;20.90;99.90
46159;DHT22;31888;44.512;26.104;2023-07-31T03:31:37;21.00;99.90
46159;DHT22;31888;44.512;26.104;2023-07-31T03:34:01;21.10;99.90
46159;DHT22;31888;44.512;26.104;2023-07-31T03:36:25;21.20;99.90
46159;DHT22;31888;44.512;26.104;2023-07-31T03:38:49;21.20;99.90
46159;DHT22;31888;44.512;26.104;2023-07-31T03:41:14;21.20;99.90
46159;DHT22;31888;44.512;26.104;2023-07-31T03:43:39;21.20;99.90
46159;DHT22;31888;44.512;26.104;2023-07-31T03:46:03;21.30;99.90
46159;DHT22;31888;44.512;26.104;2023-07-31T03:48:27;21.20;99.90
46159;DHT22;31888;44.512;26.104;2023-07-31T03:50:51;21.20;99.90
46159;DHT22;31888;44.512;26.104;2023-07-31T03:53:15;21.30;99.90
46159;DHT22;31888;44.512;26.104;2023-07-31T03:55:38;21.30;99.90
46159;DHT22;31888;44.512;26.104;2023-07-31T03:58:04;21.20;99.90
46159;DHT22;31888;44.512;26.104;2023-07-31T04:00:28;21.20;99.90
46159;DHT22;31888;44.512;26.104;2023-07-31T04:02:52;21.10;99.90
46159;DHT22;31888;44.512;26.104;2023-07-31T04:05:16;21.20;99.90
46159;DHT22;31888;44.512;26.104;2023-07-31T04:07:39;21.20;99.90
46159;DHT22;31888;44.512;26.104;2023-07-31T04:10:04;21.20;99.90
46159;DHT22;31888;44.512;26.104;2023-07-31T04:12:28;21.20;99.90
46159;DHT22;31888;44.512;26.104;2023-07-31T04:14:53;21.20;99.90
46159;DHT22;31888;44.512;26.104;2023-07-31T04:17:17;21.20;99.90
46159;DHT22;31888;44.512;26.104;2023-07-31T04:19:41;21.10;99.90
46159;DHT22;31888;44.512;26.104;2023-07-31T04:22:05;21.00;99.90
46159;DHT22;31888;44.512;26.104;2023-07-31T04:24:29;20.90;99.90
46159;DHT22;31888;44.512;26.104;2023-07-31T04:26:53;20.70;99.90
46159;DHT22;31888;44.512;26.104;2023-07-31T04:29:17;20.70;99.90
46159;DHT22;31888;44.512;26.104;2023-07-31T04:31:42;20.60;99.90
46159;DHT22;31888;44.512;26.104;2023-07-31T04:34:06;20.60;99.90
46159;DHT22;31888;44.512;26.104;2023-07-31T04:36:30;20.60;99.90
46159;DHT22;31888;44.512;26.104;2023-07-31T04:38:54;20.60;99.90
46159;DHT22;31888;44.512;26.104;2023-07-31T04:41:18;20.60;99.90
46159;DHT22;31888;44.512;26.104;2023-07-31T04:43:41;20.60;99.90
46159;DHT22;31888;44.512;26.104;2023-07-31T04:46:05;20.70;99.90
46159;DHT22;31888;44.512;26.104;2023-07-31T04:48:31;20.70;99.90
46159;DHT22;31888;44.512;26.104;2023-07-31T04:50:54;20.60;99.90
46159;DHT22;31888;44.512;26.104;2023-07-31T04:53:19;20.60;99.90
46159;DHT22;31888;44.512;26.104;2023-07-31T04:55:43;20.60;99.90
46159;DHT22;31888;44.512;26.104;2023-07-31T04:58:06;20.70;99.90
46159;DHT22;31888;44.512;26.104;2023-07-31T05:00:30;20.80;99.90
46159;DHT22;31888;44.512;26.104;2023-07-31T05:02:54;20.70;99.90
46159;DHT22;31888;44.512;26.104;2023-07-31T05:05:19;20.50;99.90
46159;DHT22;31888;44.512;26.104;2023-07-31T05:07:43;20.40;99.90
46159;DHT22;31888;44.512;26.104;2023-07-31T05:10:07;20.30;99.90
46159;DHT22;31888;44.512;26.104;2023-07-31T05:12:31;20.30;99.90
46159;DHT22;31888;44.512;26.104;2023-07-31T05:14:55;20.30;99.90
46159;DHT22;31888;44.512;26.104;2023-07-31T05:17:19;20.30;99.90
46159;DHT22;31888;44.512;26.104;2023-07-31T05:19:43;20.30;99.90
46159;DHT22;31888;44.512;26.104;2023-07-31T05:22:08;20.30;99.90
46159;DHT22;31888;44.512;26.104;2023-07-31T05:24:32;20.30;99.90
46159;DHT22;31888;44.512;26.104;2023-07-31T05:26:56;20.40;99.90
46159;DHT22;31888;44.512;26.104;2023-07-31T05:29:19;20.40;99.90
46159;DHT22;31888;44.512;26.104;2023-07-31T05:31:43;20.50;99.90
46159;DHT22;31888;44.512;26.104;2023-07-31T05:34:07;20.50;99.90
46159;DHT22;31888;44.512;26.104;2023-07-31T05:36:31;20.50;99.90
46159;DHT22;31888;44.512;26.104;2023-07-31T05:38:56;20.50;99.90
46159;DHT22;31888;44.512;26.104;2023-07-31T05:41:20;20.60;99.90
46159;DHT22;31888;44.512;26.104;2023-07-31T05:43:44;20.60;99.90
46159;DHT22;31888;44.512;26.104;2023-07-31T05:46:08;20.60;99.90
46159;DHT22;31888;44.512;26.104;2023-07-31T05:48:32;20.60;99.90
46159;DHT22;31888;44.512;26.104;2023-07-31T05:50:56;20.50;99.90
46159;DHT22;31888;44.512;26.104;2023-07-31T05:53:20;20.50;99.90
46159;DHT22;31888;44.512;26.104;2023-07-31T05:55:45;20.60;99.90
46159;DHT22;31888;44.512;26.104;2023-07-31T05:58:09;20.50;99.90
46159;DHT22;31888;44.512;26.104;2023-07-31T06:00:33;20.30;99.90
46159;DHT22;31888;44.512;26.104;2023-07-31T06:02:56;20.40;99.90
46159;DHT22;31888;44.512;26.104;2023-07-31T06:05:20;20.40;99.90
46159;DHT22;31888;44.512;26.104;2023-07-31T06:07:44;20.40;99.90
46159;DHT22;31888;44.512;26.104;2023-07-31T06:10:08;20.40;99.90
46159;DHT22;31888;44.512;26.104;2023-07-31T06:12:34;20.50;99.90
46159;DHT22;31888;44.512;26.104;2023-07-31T06:14:58;20.50;99.90
46159;DHT22;31888;44.512;26.104;2023-07-31T06:17:22;20.50;99.90
46159;DHT22;31888;44.512;26.104;2023-07-31T06:19:46;20.50;99.90
46159;DHT22;31888;44.512;26.104;2023-07-31T06:22:09;20.50;99.90
46159;DHT22;31888;44.512;26.104;2023-07-31T06:24:33;20.60;99.90
46159;DHT22;31888;44.512;26.104;2023-07-31T06:26:57;20.70;99.90
46159;DHT22;31888;44.512;26.104;2023-07-31T06:29:22;20.70;99.90
46159;DHT22;31888;44.512;26.104;2023-07-31T06:31:46;20.70;99.90
46159;DHT22;31888;44.512;26.104;2023-07-31T06:34:10;20.90;99.90
46159;DHT22;31888;44.512;26.104;2023-07-31T06:36:34;20.90;99.90
46159;DHT22;31888;44.512;26.104;2023-07-31T06:38:58;20.90;99.90
46159;DHT22;31888;44.512;26.104;2023-07-31T06:41:22;20.90;99.90
46159;DHT22;31888;44.512;26.104;2023-07-31T06:43:46;20.90;99.90
46159;DHT22;31888;44.512;26.104;2023-07-31T06:46:12;21.00;99.90
46159;DHT22;31888;44.512;26.104;2023-07-31T06:48:36;21.00;99.90
46159;DHT22;31888;44.512;26.104;2023-07-31T06:51:00;21.00;99.90
46159;DHT22;31888;44.512;26.104;2023-07-31T06:53:24;21.00;99.90
46159;DHT22;31888;44.512;26.104;2023-07-31T06:55:48;21.10;99.90
46159;DHT22;31888;44.512;26.104;2023-07-31T06:58:14;21.10;99.90
46159;DHT22;31888;44.512;26.104;2023-07-31T07:00:38;21.30;99.90
46159;DHT22;31888;44.512;26.104;2023-07-31T07:03:03;21.60;99.90
46159;DHT22;31888;44.512;26.104;2023-07-31T07:05:27;21.70;99.90
46159;DHT22;31888;44.512;26.104;2023-07-31T07:07:51;21.80;99.90
46159;DHT22;31888;44.512;26.104;2023-07-31T07:10:15;22.00;99.90
46159;DHT22;31888;44.512;26.104;2023-07-31T07:12:39;22.20;99.90
46159;DHT22;31888;44.512;26.104;2023-07-31T07:15:03;22.30;99.90
46159;DHT22;31888;44.512;26.104;2023-07-31T07:17:28;21.90;99.90
46159;DHT22;31888;44.512;26.104;2023-07-31T07:19:55;21.70;99.90
46159;DHT22;31888;44.512;26.104;2023-07-31T07:22:19;21.60;99.90
46159;DHT22;31888;44.512;26.104;2023-07-31T07:24:43;21.70;99.90
46159;DHT22;31888;44.512;26.104;2023-07-31T07:27:07;21.90;99.90
46159;DHT22;31888;44.512;26.104;2023-07-31T07:29:31;22.00;99.90
46159;DHT22;31888;44.512;26.104;2023-07-31T07:31:55;22.10;99.90
46159;DHT22;31888;44.512;26.104;2023-07-31T07:34:19;22.30;99.90
46159;DHT22;31888;44.512;26.104;2023-07-31T07:36:46;22.30;99.90
46159;DHT22;31888;44.512;26.104;2023-07-31T07:39:11;22.40;99.90
46159;DHT22;31888;44.512;26.104;2023-07-31T07:41:35;22.30;99.90
46159;DHT22;31888;44.512;26.104;2023-07-31T07:43:59;22.60;99.90
46159;DHT22;31888;44.512;26.104;2023-07-31T07:46:23;23.00;99.90
46159;DHT22;31888;44.512;26.104;2023-07-31T07:48:47;23.20;99.90
46159;DHT22;31888;44.512;26.104;2023-07-31T07:51:11;23.30;99.90
46159;DHT22;31888;44.512;26.104;2023-07-31T07:53:36;23.40;99.90
46159;DHT22;31888;44.512;26.104;2023-07-31T07:56:00;23.60;99.90
46159;DHT22;31888;44.512;26.104;2023-07-31T07:58:24;23.80;99.90
46159;DHT22;31888;44.512;26.104;2023-07-31T08:00:51;23.70;99.90
46159;DHT22;31888;44.512;26.104;2023-07-31T08:03:15;24.20;99.90
46159;DHT22;31888;44.512;26.104;2023-07-31T08:05:39;24.50;99.90
46159;DHT22;31888;44.512;26.104;2023-07-31T08:08:04;24.00;99.90
46159;DHT22;31888;44.512;26.104;2023-07-31T08:10:29;24.10;99.90
46159;DHT22;31888;44.512;26.104;2023-07-31T08:12:53;24.30;99.90
46159;DHT22;31888;44.512;26.104;2023-07-31T08:15:17;24.20;99.90
46159;DHT22;31888;44.512;26.104;2023-07-31T08:17:41;23.90;99.90
46159;DHT22;31888;44.512;26.104;2023-07-31T08:20:06;23.70;99.90
46159;DHT22;31888;44.512;26.104;2023-07-31T08:22:31;24.00;99.90
46159;DHT22;31888;44.512;26.104;2023-07-31T08:24:55;23.90;99.90
46159;DHT22;31888;44.512;26.104;2023-07-31T08:27:20;23.90;99.90
46159;DHT22;31888;44.512;26.104;2023-07-31T08:29:44;23.70;99.90
46159;DHT22;31888;44.512;26.104;2023-07-31T08:32:08;23.50;99.90
46159;DHT22;31888;44.512;26.104;2023-07-31T08:34:31;23.50;99.90
46159;DHT22;31888;44.512;26.104;2023-07-31T08:36:55;23.30;99.90
46159;DHT22;31888;44.512;26.104;2023-07-31T08:39:19;23.40;99.90
46159;DHT22;31888;44.512;26.104;2023-07-31T08:41:43;23.30;99.90
46159;DHT22;31888;44.512;26.104;2023-07-31T08:44:08;23.30;99.90
46159;DHT22;31888;44.512;26.104;2023-07-31T08:46:34;23.20;99.90
46159;DHT22;31888;44.512;26.104;2023-07-31T08:48:59;23.30;99.90
46159;DHT22;31888;44.512;26.104;2023-07-31T08:51:23;23.30;99.90
46159;DHT22;31888;44.512;26.104;2023-07-31T08:53:47;23.30;99.90
46159;DHT22;31888;44.512;26.104;2023-07-31T08:56:12;23.40;99.90
46159;DHT22;31888;44.512;26.104;2023-07-31T08:58:37;23.20;99.90
46159;DHT22;31888;44.512;26.104;2023-07-31T09:01:04;23.30;99.90
46159;DHT22;31888;44.512;26.104;2023-07-31T09:03:29;23.30;99.90
46159;DHT22;31888;44.512;26.104;2023-07-31T09:05:56;23.30;99.90
46159;DHT22;31888;44.512;26.104;2023-07-31T09:08:22;23.10;99.90
46159;DHT22;31888;44.512;26.104;2023-07-31T09:10:46;23.10;99.90
46159;DHT22;31888;44.512;26.104;2023-07-31T09:13:10;22.90;99.90
46159;DHT22;31888;44.512;26.104;2023-07-31T09:15:35;23.00;99.90
46159;DHT22;31888;44.512;26.104;2023-07-31T09:18:02;22.90;99.90
46159;DHT22;31888;44.512;26.104;2023-07-31T09:20:26;22.90;99.90
46159;DHT22;31888;44.512;26.104;2023-07-31T09:22:50;22.90;99.90
46159;DHT22;31888;44.512;26.104;2023-07-31T09:25:17;22.90;99.90
46159;DHT22;31888;44.512;26.104;2023-07-31T09:27:47;22.90;99.90
46159;DHT22;31888;44.512;26.104;2023-07-31T09:30:11;23.20;99.90
46159;DHT22;31888;44.512;26.104;2023-07-31T09:32:34;23.50;99.90
46159;DHT22;31888;44.512;26.104;2023-07-31T09:35:12;23.90;99.90
46159;DHT22;31888;44.512;26.104;2023-07-31T09:37:36;23.90;99.90
46159;DHT22;31888;44.512;26.104;2023-07-31T09:40:00;23.30;99.90
46159;DHT22;31888;44.512;26.104;2023-07-31T09:42:26;23.50;99.90
46159;DHT22;31888;44.512;26.104;2023-07-31T09:44:51;23.40;99.90
46159;DHT22;31888;44.512;26.104;2023-07-31T09:47:22;23.60;99.90
46159;DHT22;31888;44.512;26.104;2023-07-31T09:49:48;23.80;99.90
46159;DHT22;31888;44.512;26.104;2023-07-31T09:52:16;23.80;99.90
46159;DHT22;31888;44.512;26.104;2023-07-31T09:54:40;23.60;99.90
46159;DHT22;31888;44.512;26.104;2023-07-31T09:57:04;23.60;99.90
46159;DHT22;31888;44.512;26.104;2023-07-31T09:59:28;23.60;99.90
46159;DHT22;31888;44.512;26.104;2023-07-31T10:01:54;23.60;99.90
46159;DHT22;31888;44.512;26.104;2023-07-31T10:04:23;23.70;99.90
46159;DHT22;31888;44.512;26.104;2023-07-31T10:06:50;23.80;99.90
46159;DHT22;31888;44.512;26.104;2023-07-31T10:09:18;24.00;99.90
46159;DHT22;31888;44.512;26.104;2023-07-31T10:11:47;24.20;99.90
46159;DHT22;31888;44.512;26.104;2023-07-31T10:14:13;24.70;99.90
46159;DHT22;31888;44.512;26.104;2023-07-31T10:16:38;24.50;99.90
46159;DHT22;31888;44.512;26.104;2023-07-31T10:19:05;24.50;99.90
46159;DHT22;31888;44.512;26.104;2023-07-31T10:21:31;24.30;99.90
46159;DHT22;31888;44.512;26.104;2023-07-31T10:23:57;24.50;99.90
46159;DHT22;31888;44.512;26.104;2023-07-31T10:26:23;24.40;99.90
46159;DHT22;31888;44.512;26.104;2023-07-31T10:28:48;24.70;99.90
46159;DHT22;31888;44.512;26.104;2023-07-31T10:31:14;24.70;99.90
46159;DHT22;31888;44.512;26.104;2023-07-31T10:33:39;24.30;99.90
46159;DHT22;31888;44.512;26.104;2023-07-31T10:36:13;24.50;99.90
46159;DHT22;31888;44.512;26.104;2023-07-31T10:38:38;24.70;99.90
46159;DHT22;31888;44.512;26.104;2023-07-31T10:41:08;24.90;99.90
46159;DHT22;31888;44.512;26.104;2023-07-31T10:43:33;25.00;99.90
46159;DHT22;31888;44.512;26.104;2023-07-31T10:45:57;24.70;99.90
46159;DHT22;31888;44.512;26.104;2023-07-31T10:48:22;24.60;99.90
46159;DHT22;31888;44.512;26.104;2023-07-31T10:50:48;24.70;99.90
46159;DHT22;31888;44.512;26.104;2023-07-31T10:53:23;24.50;99.90
46159;DHT22;31888;44.512;26.104;2023-07-31T10:55:47;24.60;99.90
46159;DHT22;31888;44.512;26.104;2023-07-31T10:58:14;24.40;99.90
46159;DHT22;31888;44.512;26.104;2023-07-31T11:00:44;24.50;99.90
46159;DHT22;31888;44.512;26.104;2023-07-31T11:03:09;24.30;99.90
46159;DHT22;31888;44.512;26.104;2023-07-31T11:05:51;24.10;99.90
46159;DHT22;31888;44.512;26.104;2023-07-31T11:08:17;24.10;99.90
46159;DHT22;31888;44.512;26.104;2023-07-31T11:10:42;24.00;99.90
46159;DHT22;31888;44.512;26.104;2023-07-31T11:13:07;24.10;99.90
46159;DHT22;31888;44.512;26.104;2023-07-31T11:15:30;24.20;99.90
46159;DHT22;31888;44.512;26.104;2023-07-31T11:17:56;24.10;99.90
46159;DHT22;31888;44.512;26.104;2023-07-31T11:20:20;24.40;99.90
46159;DHT22;31888;44.512;26.104;2023-07-31T11:22:44;24.60;99.90
46159;DHT22;31888;44.512;26.104;2023-07-31T11:25:08;24.30;99.90
46159;DHT22;31888;44.512;26.104;2023-07-31T11:27:39;24.20;99.90
46159;DHT22;31888;44.512;26.104;2023-07-31T11:30:03;24.20;99.90
46159;DHT22;31888;44.512;26.104;2023-07-31T11:32:27;24.30;99.90
46159;DHT22;31888;44.512;26.104;2023-07-31T11:34:54;24.40;99.90
46159;DHT22;31888;44.512;26.104;2023-07-31T11:37:18;24.50;99.90
46159;DHT22;31888;44.512;26.104;2023-07-31T11:39:42;24.60;99.90
46159;DHT22;31888;44.512;26.104;2023-07-31T11:42:06;24.60;99.90
46159;DHT22;31888;44.512;26.104;2023-07-31T11:44:38;24.90;99.90
46159;DHT22;31888;44.512;26.104;2023-07-31T11:47:02;25.00;99.90
46159;DHT22;31888;44.512;26.104;2023-07-31T11:49:26;25.00;99.90
46159;DHT22;31888;44.512;26.104;2023-07-31T11:51:52;25.00;99.90
46159;DHT22;31888;44.512;26.104;2023-07-31T11:54:16;25.30;99.90
46159;DHT22;31888;44.512;26.104;2023-07-31T11:56:40;25.50;99.90
46159;DHT22;31888;44.512;26.104;2023-07-31T11:59:04;25.40;99.90
46159;DHT22;31888;44.512;26.104;2023-07-31T12:01:31;25.20;99.90
46159;DHT22;31888;44.512;26.104;2023-07-31T12:03:56;25.10;99.90
46159;DHT22;31888;44.512;26.104;2023-07-31T12:06:20;24.90;99.90
46159;DHT22;31888;44.512;26.104;2023-07-31T12:08:46;24.70;99.90
46159;DHT22;31888;44.512;26.104;2023-07-31T12:11:10;24.80;99.90
46159;DHT22;31888;44.512;26.104;2023-07-31T12:13:34;24.80;99.90
46159;DHT22;31888;44.512;26.104;2023-07-31T12:15:59;24.80;99.90
46159;DHT22;31888;44.512;26.104;2023-07-31T12:18:25;24.90;99.90
46159;DHT22;31888;44.512;26.104;2023-07-31T12:20:53;25.00;99.90
46159;DHT22;31888;44.512;26.104;2023-07-31T12:23:19;25.00;99.90
46159;DHT22;31888;44.512;26.104;2023-07-31T12:26:00;24.90;99.90
46159;DHT22;31888;44.512;26.104;2023-07-31T12:28:24;25.10;99.90
46159;DHT22;31888;44.512;26.104;2023-07-31T12:30:48;25.30;99.90
46159;DHT22;31888;44.512;26.104;2023-07-31T12:33:15;25.40;99.90
46159;DHT22;31888;44.512;26.104;2023-07-31T12:35:41;25.50;99.90
46159;DHT22;31888;44.512;26.104;2023-07-31T12:38:06;25.80;99.90
46159;DHT22;31888;44.512;26.104;2023-07-31T12:40:30;25.80;99.90
46159;DHT22;31888;44.512;26.104;2023-07-31T12:42:56;25.80;99.90
46159;DHT22;31888;44.512;26.104;2023-07-31T12:45:20;25.90;99.70
46159;DHT22;31888;44.512;26.104;2023-07-31T12:47:45;25.90;99.20
46159;DHT22;31888;44.512;26.104;2023-07-31T12:50:09;25.60;99.50
46159;DHT22;31888;44.512;26.104;2023-07-31T12:52:33;25.50;99.50
46159;DHT22;31888;44.512;26.104;2023-07-31T12:54:57;25.80;99.30
46159;DHT22;31888;44.512;26.104;2023-07-31T12:57:21;26.00;99.60
46159;DHT22;31888;44.512;26.104;2023-07-31T12:59:46;26.20;99.30
46159;DHT22;31888;44.512;26.104;2023-07-31T13:02:10;26.50;98.90
46159;DHT22;31888;44.512;26.104;2023-07-31T13:04:35;26.10;98.50
46159;DHT22;31888;44.512;26.104;2023-07-31T13:06:58;26.10;98.60
46159;DHT22;31888;44.512;26.104;2023-07-31T13:09:22;26.10;98.40
46159;DHT22;31888;44.512;26.104;2023-07-31T13:11:46;26.00;98.50
46159;DHT22;31888;44.512;26.104;2023-07-31T13:14:10;26.10;99.10
46159;DHT22;31888;44.512;26.104;2023-07-31T13:16:36;26.10;98.70
46159;DHT22;31888;44.512;26.104;2023-07-31T13:19:01;25.90;98.70
46159;DHT22;31888;44.512;26.104;2023-07-31T13:21:25;26.00;99.10
46159;DHT22;31888;44.512;26.104;2023-07-31T13:23:48;26.20;98.50
46159;DHT22;31888;44.512;26.104;2023-07-31T13:26:12;26.20;97.90
46159;DHT22;31888;44.512;26.104;2023-07-31T13:28:36;26.20;98.10
46159;DHT22;31888;44.512;26.104;2023-07-31T13:31:00;26.20;98.20
46159;DHT22;31888;44.512;26.104;2023-07-31T13:33:25;26.20;98.10
46159;DHT22;31888;44.512;26.104;2023-07-31T13:36:00;26.00;98.30
46159;DHT22;31888;44.512;26.104;2023-07-31T13:38:23;25.90;98.20
46159;DHT22;31888;44.512;26.104;2023-07-31T13:40:47;25.70;98.00
46159;DHT22;31888;44.512;26.104;2023-07-31T13:43:11;25.70;98.50
46159;DHT22;31888;44.512;26.104;2023-07-31T13:45:35;25.70;98.50
46159;DHT22;31888;44.512;26.104;2023-07-31T13:47:58;25.50;98.70
46159;DHT22;31888;44.512;26.104;2023-07-31T13:50:24;25.40;98.70
46159;DHT22;31888;44.512;26.104;2023-07-31T13:52:48;25.40;98.90
46159;DHT22;31888;44.512;26.104;2023-07-31T13:55:12;25.30;98.90
46159;DHT22;31888;44.512;26.104;2023-07-31T13:57:35;25.30;98.90
46159;DHT22;31888;44.512;26.104;2023-07-31T13:59:59;25.20;99.10
46159;DHT22;31888;44.512;26.104;2023-07-31T14:02:26;25.20;99.10
46159;DHT22;31888;44.512;26.104;2023-07-31T14:04:50;25.00;99.40
46159;DHT22;31888;44.512;26.104;2023-07-31T14:07:15;25.10;99.50
46159;DHT22;31888;44.512;26.104;2023-07-31T14:09:40;25.10;99.70
46159;DHT22;31888;44.512;26.104;2023-07-31T14:12:04;25.20;99.30
46159;DHT22;31888;44.512;26.104;2023-07-31T14:14:28;25.30;99.00
46159;DHT22;31888;44.512;26.104;2023-07-31T14:16:52;25.40;98.80
46159;DHT22;31888;44.512;26.104;2023-07-31T14:19:16;25.40;98.90
46159;DHT22;31888;44.512;26.104;2023-07-31T14:21:40;25.40;99.50
46159;DHT22;31888;44.512;26.104;2023-07-31T14:24:11;25.30;99.50
46159;DHT22;31888;44.512;26.104;2023-07-31T14:26:35;25.20;99.90
46159;DHT22;31888;44.512;26.104;2023-07-31T14:28:59;25.10;99.90
46159;DHT22;31888;44.512;26.104;2023-07-31T14:31:23;25.00;99.90
46159;DHT22;31888;44.512;26.104;2023-07-31T14:33:47;25.00;99.90
46159;DHT22;31888;44.512;26.104;2023-07-31T14:36:11;24.80;99.90
46159;DHT22;31888;44.512;26.104;2023-07-31T14:38:35;24.80;99.90
46159;DHT22;31888;44.512;26.104;2023-07-31T14:41:00;24.80;99.90
46159;DHT22;31888;44.512;26.104;2023-07-31T14:43:24;24.80;99.90
46159;DHT22;31888;44.512;26.104;2023-07-31T14:45:48;24.60;99.90
46159;DHT22;31888;44.512;26.104;2023-07-31T14:48:11;24.60;99.90
46159;DHT22;31888;44.512;26.104;2023-07-31T14:50:35;24.60;99.90
46159;DHT22;31888;44.512;26.104;2023-07-31T14:52:59;24.50;99.90
46159;DHT22;31888;44.512;26.104;2023-07-31T14:55:23;24.40;99.90
46159;DHT22;31888;44.512;26.104;2023-07-31T14:57:48;24.30;99.90
46159;DHT22;31888;44.512;26.104;2023-07-31T15:00:13;24.40;99.90